createdAt,value
2018-02-17T00:01:01.908Z,-0.10
2018-02-17T00:03:29.404Z,-0.10
2018-02-17T00:05:56.928Z,-0.10
2018-02-17T00:08:24.439Z,-0.10
2018-02-17T00:10:51.919Z,-0.10
2018-02-17T00:13:19.416Z,-0.10
2018-02-17T00:15:46.988Z,-0.10
2018-02-17T00:18:14.488Z,-0.10
2018-02-17T00:20:42.752Z,-0.10
2018-02-17T00:23:10.242Z,-0.10
2018-02-17T00:25:38.511Z,-0.10
2018-02-17T00:28:06.786Z,-0.10
2018-02-17T00:30:34.267Z,-0.10
2018-02-17T00:33:01.860Z,-0.10
2018-02-17T00:35:30.127Z,-0.20
2018-02-17T00:37:57.722Z,-0.20
2018-02-17T00:40:26.004Z,-0.30
2018-02-17T00:42:54.259Z,-0.20
2018-02-17T00:45:21.768Z,-0.30
2018-02-17T00:47:49.251Z,-0.20
2018-02-17T00:50:17.503Z,-0.20
2018-02-17T00:52:44.984Z,-0.20
2018-02-17T00:55:12.571Z,-0.20
2018-02-17T00:57:40.052Z,-0.20
2018-02-17T01:00:07.654Z,-0.20
2018-02-17T01:02:35.134Z,-0.20
2018-02-17T01:05:02.625Z,-0.20
2018-02-17T01:07:30.168Z,-0.20
2018-02-17T01:09:57.676Z,-0.20
2018-02-17T01:12:25.155Z,-0.20
2018-02-17T01:14:52.668Z,-0.20
2018-02-17T01:17:20.949Z,-0.10
2018-02-17T01:19:48.435Z,-0.10
2018-02-17T01:22:16.704Z,0.00
2018-02-17T01:24:44.187Z,0.00
2018-02-17T01:27:12.423Z,0.10
2018-02-17T01:29:39.939Z,0.00
2018-02-17T01:32:07.511Z,0.00
2018-02-17T01:34:35.010Z,0.00
2018-02-17T01:37:02.505Z,0.10
2018-02-17T01:39:30.031Z,0.10
2018-02-17T01:41:58.296Z,0.10
2018-02-17T01:44:25.780Z,0.00
2018-02-17T01:46:53.271Z,0.10
2018-02-17T01:49:21.539Z,0.10
2018-02-17T01:51:49.031Z,0.10
2018-02-17T01:54:17.271Z,0.20
2018-02-17T01:56:44.763Z,0.10
2018-02-17T01:59:13.007Z,0.20
2018-02-17T02:01:40.495Z,0.20
2018-02-17T02:04:08.000Z,0.30
2018-02-17T02:06:35.491Z,0.30
2018-02-17T02:09:03.744Z,0.30
2018-02-17T02:11:31.336Z,0.30
2018-02-17T02:13:58.908Z,0.30
2018-02-17T02:16:26.397Z,0.30
2018-02-17T02:18:54.635Z,0.30
2018-02-17T02:21:22.136Z,0.30
2018-02-17T02:23:49.615Z,0.30
2018-02-17T02:26:17.108Z,0.30
2018-02-17T02:28:44.639Z,0.30
2018-02-17T02:31:13.636Z,0.10
2018-02-17T02:33:41.123Z,0.10
2018-02-17T02:36:08.603Z,0.20
2018-02-17T02:38:36.856Z,0.10
2018-02-17T02:41:04.332Z,0.10
2018-02-17T02:43:31.824Z,0.00
2018-02-17T02:45:59.312Z,0.00
2018-02-17T02:48:27.577Z,0.00
2018-02-17T02:50:55.064Z,0.00
2018-02-17T02:53:23.319Z,0.00
2018-02-17T02:55:50.791Z,0.00
2018-02-17T02:58:18.275Z,0.00
2018-02-17T03:00:45.747Z,0.00
2018-02-17T03:03:13.235Z,0.00
2018-02-17T03:05:41.475Z,0.00
2018-02-17T03:08:08.967Z,0.00
2018-02-17T03:10:36.564Z,0.00
2018-02-17T03:13:04.837Z,-0.10
2018-02-17T03:15:32.329Z,-0.10
2018-02-17T03:18:00.583Z,-0.10
2018-02-17T03:20:28.085Z,-0.10
2018-02-17T03:22:56.360Z,-0.10
2018-02-17T03:25:23.860Z,-0.10
2018-02-17T03:27:52.104Z,-0.10
2018-02-17T03:30:19.592Z,-0.10
2018-02-17T03:32:47.071Z,-0.10
2018-02-17T03:35:14.639Z,-0.10
2018-02-17T03:37:42.131Z,-0.10
2018-02-17T03:40:10.388Z,-0.10
2018-02-17T03:42:37.885Z,-0.10
2018-02-17T03:45:05.375Z,0.00
2018-02-17T03:47:33.644Z,-0.10
2018-02-17T03:50:01.904Z,-0.10
2018-02-17T03:52:29.392Z,-0.10
2018-02-17T03:54:57.001Z,-0.10
2018-02-17T03:57:24.536Z,-0.10
2018-02-17T03:59:52.027Z,-0.10
2018-02-17T04:02:20.268Z,0.00
2018-02-17T04:04:47.763Z,-0.10
2018-02-17T04:07:15.335Z,0.00
2018-02-17T04:09:42.912Z,0.00
2018-02-17T04:12:10.402Z,0.00
2018-02-17T04:14:38.639Z,0.10
2018-02-17T04:17:06.131Z,0.10
2018-02-17T04:19:34.460Z,0.10
2018-02-17T04:22:02.004Z,0.10
2018-02-17T04:24:29.486Z,0.10
2018-02-17T04:26:57.766Z,0.10
2018-02-17T04:29:26.043Z,0.10
2018-02-17T04:31:53.531Z,0.10
2018-02-17T04:34:21.803Z,0.10
2018-02-17T04:36:49.291Z,0.10
2018-02-17T04:39:17.533Z,0.10
2018-02-17T04:41:45.607Z,0.10
2018-02-17T04:44:13.967Z,0.20
2018-02-17T04:46:44.406Z,0.20
2018-02-17T04:49:17.611Z,0.20
2018-02-17T04:51:45.916Z,0.20
2018-02-17T04:54:19.007Z,0.10
2018-02-17T04:56:48.135Z,0.10
2018-02-17T05:02:25.912Z,0.10
2018-02-17T05:04:57.043Z,0.10
2018-02-17T05:07:26.372Z,0.20
2018-02-17T05:09:53.843Z,0.10
2018-02-17T05:12:21.332Z,0.10
2018-02-17T05:14:54.491Z,0.10
2018-02-17T05:17:40.712Z,0.20
2018-02-17T05:23:18.863Z,0.20
2018-02-17T05:26:03.304Z,0.10
2018-02-17T05:28:45.543Z,0.10
2018-02-17T05:31:14.615Z,0.10
2018-02-17T05:36:52.115Z,0.20
2018-02-17T05:39:30.328Z,0.20
2018-02-17T05:41:57.823Z,0.30
2018-02-17T05:44:40.181Z,0.30
2018-02-17T05:47:10.195Z,0.30
2018-02-17T05:49:53.311Z,0.30
2018-02-17T05:52:20.833Z,0.30
2018-02-17T05:54:48.356Z,0.30
2018-02-17T05:57:15.958Z,0.30
2018-02-17T05:59:43.443Z,0.30
2018-02-17T06:02:11.000Z,0.40
2018-02-17T06:04:38.479Z,0.40
2018-02-17T06:07:05.966Z,0.40
2018-02-17T06:09:33.447Z,0.40
2018-02-17T06:12:00.930Z,0.40
2018-02-17T06:14:28.427Z,0.30
2018-02-17T06:16:56.683Z,0.30
2018-02-17T06:19:24.291Z,0.30
2018-02-17T06:21:52.527Z,0.30
2018-02-17T06:24:20.019Z,0.30
2018-02-17T06:26:47.504Z,0.30
2018-02-17T06:29:16.512Z,0.30
2018-02-17T06:31:43.991Z,0.40
2018-02-17T06:34:12.271Z,0.40
2018-02-17T06:36:39.739Z,0.40
2018-02-17T06:39:08.062Z,0.30
2018-02-17T06:41:35.603Z,0.30
2018-02-17T06:44:03.100Z,0.40
2018-02-17T06:46:30.587Z,0.40
2018-02-17T06:48:58.080Z,0.50
2018-02-17T06:51:25.557Z,0.50
2018-02-17T06:53:53.151Z,0.50
2018-02-17T06:56:20.627Z,0.50
2018-02-17T06:58:48.103Z,0.50
2018-02-17T07:01:16.360Z,0.60
2018-02-17T07:03:43.835Z,0.60
2018-02-17T07:06:11.423Z,0.60
2018-02-17T07:08:38.908Z,0.70
2018-02-17T07:11:07.160Z,0.70
2018-02-17T07:13:34.644Z,0.70
2018-02-17T07:16:02.233Z,0.80
2018-02-17T07:18:29.782Z,0.80
2018-02-17T07:20:57.284Z,0.80
2018-02-17T07:23:25.538Z,0.90
2018-02-17T07:25:53.122Z,0.90
2018-02-17T07:28:20.610Z,0.90
2018-02-17T07:30:48.882Z,1.00
2018-02-17T07:33:17.179Z,1.00
2018-02-17T07:35:44.748Z,1.00
2018-02-17T07:38:12.249Z,1.10
2018-02-17T07:40:39.727Z,1.10
2018-02-17T07:43:07.255Z,1.20
2018-02-17T07:45:34.832Z,1.20
2018-02-17T07:48:02.436Z,1.30
2018-02-17T07:50:29.931Z,1.30
2018-02-17T07:52:57.424Z,1.30
2018-02-17T07:55:25.016Z,1.40
2018-02-17T07:57:52.592Z,1.40
2018-02-17T08:00:20.129Z,1.50
2018-02-17T08:02:47.587Z,1.60
2018-02-17T08:05:15.067Z,1.60
2018-02-17T08:07:42.561Z,1.60
2018-02-17T08:10:10.160Z,1.70
2018-02-17T08:12:38.465Z,1.80
2018-02-17T08:15:05.947Z,1.80
2018-02-17T08:17:33.507Z,1.90
2018-02-17T08:20:01.748Z,1.90
2018-02-17T08:22:29.371Z,1.90
2018-02-17T08:24:56.927Z,2.00
2018-02-17T08:27:24.433Z,2.10
2018-02-17T08:29:51.928Z,2.10
2018-02-17T08:32:19.606Z,2.10
2018-02-17T08:34:47.097Z,2.20
2018-02-17T08:37:14.571Z,2.20
2018-02-17T08:39:42.831Z,2.50
2018-02-17T08:42:10.460Z,2.50
2018-02-17T08:44:37.932Z,2.60
2018-02-17T08:47:05.423Z,2.60
2018-02-17T08:49:32.904Z,2.70
2018-02-17T08:52:00.396Z,2.80
2018-02-17T08:54:27.871Z,2.80
2018-02-17T08:56:55.365Z,2.80
2018-02-17T09:01:07.207Z,2.90
2018-02-17T09:03:34.709Z,3.00
2018-02-17T09:08:32.782Z,3.20
2018-02-17T09:11:01.080Z,3.40
2018-02-17T09:14:04.247Z,3.40
2018-02-17T09:19:08.312Z,3.60
2018-02-17T09:23:37.503Z,3.80
2018-02-17T09:28:03.315Z,3.90
2018-02-17T09:32:28.111Z,4.10
2018-02-17T09:36:46.943Z,4.20
2018-02-17T09:41:22.433Z,4.40
2018-02-17T09:45:50.439Z,4.40
2018-02-17T09:50:23.444Z,4.50
2018-02-17T09:54:18.056Z,4.50
2018-02-17T09:57:44.556Z,4.70
2018-02-17T11:22:08.787Z,7.50
2018-02-17T11:24:37.091Z,7.70
2018-02-17T11:27:05.341Z,7.70
2018-02-17T11:29:34.388Z,7.60
2018-02-17T11:32:01.900Z,7.60
2018-02-17T11:34:29.376Z,7.60
2018-02-17T11:36:56.963Z,7.70
2018-02-17T11:39:24.573Z,7.90
2018-02-17T11:41:52.068Z,8.10
2018-02-17T11:44:19.542Z,8.00
2018-02-17T11:46:47.050Z,7.80
2018-02-17T11:49:14.623Z,7.70
2018-02-17T11:51:42.104Z,7.90
2018-02-17T11:54:10.363Z,7.90
2018-02-17T11:56:37.852Z,7.80
2018-02-17T11:59:05.427Z,7.70
2018-02-17T12:01:33.013Z,7.90
2018-02-17T12:04:01.294Z,8.20
2018-02-17T12:06:30.097Z,8.40
2018-02-17T12:08:58.395Z,8.30
2018-02-17T12:11:26.668Z,8.30
2018-02-17T12:13:54.145Z,8.30
2018-02-17T12:16:22.423Z,8.50
2018-02-17T12:18:49.912Z,8.50
2018-02-17T12:21:18.147Z,8.60
2018-02-17T12:23:45.644Z,8.60
2018-02-17T12:26:13.128Z,8.60
2018-02-17T12:28:40.695Z,8.70
2018-02-17T12:31:51.793Z,9.20
2018-02-17T12:34:19.293Z,9.20
2018-02-17T12:36:46.868Z,9.40
2018-02-17T12:39:14.344Z,9.00
2018-02-17T12:41:41.909Z,8.80
2018-02-17T12:44:09.383Z,8.80
2018-02-17T12:46:36.952Z,8.70
2018-02-17T12:49:04.427Z,8.80
2018-02-17T12:51:31.908Z,8.80
2018-02-17T12:53:59.439Z,8.90
2018-02-17T12:56:27.700Z,9.00
2018-02-17T12:58:55.197Z,9.00
2018-02-17T13:01:23.512Z,9.70
2018-02-17T13:03:51.084Z,9.70
2018-02-17T13:06:18.569Z,9.90
2018-02-17T13:08:46.051Z,10.30
2018-02-17T13:11:13.567Z,10.60
2018-02-17T13:13:42.579Z,11.60
2018-02-17T13:16:10.059Z,11.60
2018-02-17T13:18:38.319Z,12.50
2018-02-17T13:21:05.939Z,12.50
2018-02-17T13:23:33.512Z,12.70
2018-02-17T13:26:01.083Z,12.80
2018-02-17T13:28:28.582Z,12.90
2018-02-17T13:30:56.076Z,12.60
2018-02-17T13:33:23.660Z,11.90
2018-02-17T13:35:51.270Z,12.00
2018-02-17T13:38:18.761Z,12.50
2018-02-17T13:40:46.239Z,12.60
2018-02-17T13:43:13.731Z,12.50
2018-02-17T13:45:41.250Z,12.30
2018-02-17T13:48:08.764Z,11.90
2018-02-17T13:50:36.246Z,11.90
2018-02-17T13:53:03.748Z,11.80
2018-02-17T13:55:31.277Z,11.60
2018-02-17T13:57:58.870Z,11.60
2018-02-17T14:00:26.444Z,12.30
2018-02-17T14:02:53.927Z,12.70
2018-02-17T14:05:22.167Z,12.40
2018-02-17T14:07:49.682Z,12.40
2018-02-17T14:10:17.183Z,12.30
2018-02-17T14:12:44.715Z,12.50
2018-02-17T14:15:12.288Z,12.30
2018-02-17T14:17:39.767Z,12.30
2018-02-17T14:20:07.336Z,11.70
2018-02-17T14:22:34.819Z,11.20
2018-02-17T14:25:03.220Z,10.40
2018-02-17T14:27:31.468Z,10.20
2018-02-17T14:29:58.952Z,10.20
2018-02-17T14:32:26.448Z,10.00
2018-02-17T14:34:54.692Z,9.60
2018-02-17T14:37:22.279Z,9.60
2018-02-17T14:39:49.746Z,9.50
2018-02-17T14:42:17.219Z,9.40
2018-02-17T14:44:44.794Z,9.20
2018-02-17T14:47:12.300Z,9.00
2018-02-17T14:49:39.791Z,8.80
2018-02-17T14:52:07.343Z,8.80
2018-02-17T14:54:34.812Z,8.70
2018-02-17T14:57:02.308Z,8.60
2018-02-17T14:59:29.791Z,8.50
2018-02-17T15:01:57.292Z,8.30
2018-02-17T15:04:24.863Z,8.20
2018-02-17T15:06:52.336Z,8.10
2018-02-17T15:09:19.832Z,8.00
2018-02-17T15:11:47.408Z,8.00
2018-02-17T15:14:14.903Z,8.00
2018-02-17T15:16:42.376Z,8.00
2018-02-17T15:19:09.852Z,7.90
2018-02-17T15:21:37.393Z,7.90
2018-02-17T15:24:04.879Z,7.80
2018-02-17T15:26:32.380Z,7.80
2018-02-17T15:28:59.859Z,7.70
2018-02-17T15:31:27.335Z,7.60
2018-02-17T15:33:54.912Z,7.60
2018-02-17T15:36:22.391Z,7.50
2018-02-17T15:38:50.647Z,7.50
2018-02-17T15:41:18.139Z,7.40
2018-02-17T15:43:45.707Z,7.40
2018-02-17T15:46:13.202Z,7.40
2018-02-17T15:48:41.475Z,7.40
2018-02-17T15:51:08.972Z,7.40
2018-02-17T15:53:36.547Z,7.50
2018-02-17T15:56:04.053Z,7.40
2018-02-17T15:58:31.560Z,7.40
2018-02-17T16:00:59.051Z,7.40
2018-02-17T16:03:27.311Z,7.30
2018-02-17T16:05:54.799Z,7.30
2018-02-17T16:08:23.040Z,7.20
2018-02-17T16:10:50.525Z,7.20
2018-02-17T16:13:17.996Z,7.10
2018-02-17T16:15:45.588Z,7.00
2018-02-17T16:18:13.064Z,6.90
2018-02-17T16:20:40.547Z,6.80
2018-02-17T16:23:08.802Z,6.70
2018-02-17T16:25:36.275Z,6.60
2018-02-17T16:28:03.791Z,6.60
2018-02-17T16:30:31.284Z,6.50
2018-02-17T16:32:58.796Z,6.40
2018-02-17T16:35:27.246Z,6.10
2018-02-17T16:37:54.761Z,6.10
2018-02-17T16:40:22.332Z,6.00
2018-02-17T16:42:49.835Z,5.80
2018-02-17T16:45:17.311Z,5.70
2018-02-17T16:47:44.879Z,5.60
2018-02-17T16:50:12.439Z,5.50
2018-02-17T16:52:40.695Z,5.20
2018-02-17T16:55:08.196Z,5.10
2018-02-17T16:57:36.436Z,5.00
2018-02-17T17:00:03.925Z,5.00
2018-02-17T17:02:32.229Z,4.70
2018-02-17T17:04:59.741Z,4.70
2018-02-17T17:07:27.231Z,4.60
2018-02-17T17:09:54.705Z,4.50
2018-02-17T17:12:22.207Z,4.40
2018-02-17T17:14:49.710Z,4.30
2018-02-17T17:17:17.208Z,4.20
2018-02-17T17:19:44.687Z,4.10
2018-02-17T17:22:12.159Z,4.00
2018-02-17T17:24:39.647Z,3.80
2018-02-17T17:27:08.670Z,3.60
2018-02-17T17:29:36.172Z,3.60
2018-02-17T17:32:03.675Z,3.50
2018-02-17T17:34:31.159Z,3.50
2018-02-17T17:36:58.772Z,3.40
2018-02-17T17:39:27.011Z,3.20
2018-02-17T17:41:54.628Z,3.20
2018-02-17T17:44:22.935Z,3.10
2018-02-17T17:46:50.415Z,3.10
2018-02-17T17:49:17.907Z,3.00
2018-02-17T17:51:45.380Z,3.00
2018-02-17T17:54:12.884Z,2.90
2018-02-17T17:56:40.363Z,2.80
2018-02-17T17:59:08.603Z,2.60
2018-02-17T18:01:36.097Z,2.60
2018-02-17T18:04:03.580Z,2.50
2018-02-17T18:06:31.084Z,2.40
2018-02-17T18:08:58.632Z,2.40
2018-02-17T18:11:26.871Z,2.30
2018-02-17T18:13:54.379Z,2.20
2018-02-17T18:16:21.952Z,2.20
2018-02-17T18:18:49.423Z,2.20
2018-02-17T18:21:17.029Z,2.10
2018-02-17T18:23:44.579Z,2.00
2018-02-17T18:26:12.820Z,1.90
2018-02-17T18:28:40.327Z,1.90
2018-02-17T18:31:07.816Z,1.80
2018-02-17T18:33:36.061Z,1.70
2018-02-17T18:36:03.563Z,1.70
2018-02-17T18:38:31.127Z,1.60
2018-02-17T18:40:58.645Z,1.50
2018-02-17T18:43:26.123Z,1.50
2018-02-17T18:45:53.604Z,1.50
2018-02-17T18:48:21.120Z,1.50
2018-02-17T18:50:49.360Z,1.40
2018-02-17T18:53:16.881Z,1.40
2018-02-17T18:55:45.144Z,1.30
2018-02-17T18:58:12.639Z,1.30
2018-02-17T19:00:40.905Z,1.20
2018-02-17T19:03:08.501Z,1.20
2018-02-17T19:05:36.884Z,1.20
2018-02-17T19:08:04.459Z,1.20
2018-02-17T19:10:31.939Z,1.10
2018-02-17T19:13:00.195Z,1.10
2018-02-17T19:15:27.688Z,1.10
2018-02-17T19:19:45.254Z,1.00
2018-02-17T19:22:13.535Z,0.90
2018-02-17T19:24:41.137Z,0.90
2018-02-17T19:27:08.679Z,0.90
2018-02-17T19:29:36.162Z,0.90
2018-02-17T19:32:04.420Z,0.80
2018-02-17T19:34:31.903Z,0.80
2018-02-17T19:36:59.417Z,0.80
2018-02-17T19:39:26.896Z,0.70
2018-02-17T19:41:54.370Z,0.70
2018-02-17T19:44:21.919Z,0.70
2018-02-17T19:46:49.397Z,0.60
2018-02-17T19:49:16.904Z,0.60
2018-02-17T19:51:44.383Z,0.60
2018-02-17T19:54:11.863Z,0.50
2018-02-17T19:56:39.351Z,0.50
2018-02-17T19:59:07.592Z,0.50
2018-02-17T20:01:35.133Z,0.50
2018-02-17T20:04:02.615Z,0.50
2018-02-17T20:06:30.145Z,0.50
2018-02-17T20:08:57.647Z,0.40
2018-02-17T20:11:25.131Z,0.40
2018-02-17T20:13:52.682Z,0.40
2018-02-17T20:16:20.904Z,0.30
2018-02-17T20:18:48.432Z,0.30
2018-02-17T20:21:15.883Z,0.30
2018-02-17T20:23:43.455Z,0.20
2018-02-17T20:26:10.951Z,0.20
2018-02-17T20:28:38.434Z,0.20
2018-02-17T20:31:05.916Z,0.10
2018-02-17T20:33:33.461Z,0.10
2018-02-17T20:36:01.012Z,0.10
2018-02-17T20:38:28.525Z,0.00
2018-02-17T20:40:56.003Z,0.00
2018-02-17T20:43:23.613Z,0.00
2018-02-17T20:45:51.065Z,0.00
2018-02-17T20:48:18.550Z,-0.10
2018-02-17T20:50:46.136Z,-0.10
2018-02-17T20:53:13.623Z,-0.10
2018-02-17T20:55:41.884Z,-0.20
2018-02-17T20:58:09.375Z,-0.20
2018-02-17T21:00:37.726Z,-0.20
2018-02-17T21:03:05.209Z,-0.30
2018-02-17T21:05:32.708Z,-0.20
2018-02-17T21:08:00.226Z,-0.30
2018-02-17T21:10:27.736Z,-0.30
2018-02-17T21:12:55.228Z,-0.30
2018-02-17T21:15:23.496Z,-0.40
2018-02-17T21:17:50.981Z,-0.40
2018-02-17T21:20:19.233Z,-0.40
2018-02-17T21:22:46.732Z,-0.40
2018-02-17T21:25:14.987Z,-0.40
2018-02-17T21:27:42.583Z,-0.40
2018-02-17T21:30:10.068Z,-0.40
2018-02-17T21:32:38.321Z,-0.40
2018-02-17T21:35:05.919Z,-0.50
2018-02-17T21:37:33.398Z,-0.50
2018-02-17T21:40:01.673Z,-0.50
2018-02-17T21:42:29.178Z,-0.50
2018-02-17T21:44:56.660Z,-0.50
2018-02-17T21:47:24.159Z,-0.50
2018-02-17T21:49:51.648Z,-0.50
2018-02-17T21:52:19.158Z,-0.50
2018-02-17T21:54:46.732Z,-0.50
2018-02-17T21:57:14.216Z,-0.50
2018-02-17T21:59:41.724Z,-0.60
2018-02-17T22:02:09.244Z,-0.60
2018-02-17T22:04:36.751Z,-0.70
2018-02-17T22:07:04.245Z,-0.70
2018-02-17T22:09:31.739Z,-0.70
2018-02-17T22:12:00.011Z,-0.70
2018-02-17T22:14:27.500Z,-0.70
2018-02-17T22:16:55.769Z,-0.80
2018-02-17T22:19:23.260Z,-0.80
2018-02-17T22:21:50.748Z,-0.80
2018-02-17T22:24:18.307Z,-0.70
2018-02-17T22:26:45.763Z,-0.70
2018-02-17T22:29:14.036Z,-0.80
2018-02-17T22:31:41.724Z,-0.80
2018-02-17T22:34:09.330Z,-0.80
2018-02-17T22:36:36.823Z,-0.80
2018-02-17T22:39:04.318Z,-0.80
2018-02-17T22:41:32.584Z,-0.90
2018-02-17T22:44:00.229Z,-0.90
2018-02-17T22:46:27.712Z,-0.90
2018-02-17T22:48:55.252Z,-0.90
2018-02-17T22:51:23.524Z,-0.90
2018-02-17T22:53:51.007Z,-0.90
2018-02-17T22:56:19.316Z,-0.80
2018-02-17T22:58:46.860Z,-0.90
2018-02-17T23:01:14.343Z,-0.90
2018-02-17T23:03:42.616Z,-1.00
2018-02-17T23:06:10.194Z,-1.00
2018-02-17T23:08:37.691Z,-1.00
2018-02-17T23:11:05.174Z,-1.00
2018-02-17T23:13:32.733Z,-1.10
2018-02-17T23:16:01.013Z,-1.10
2018-02-17T23:18:28.516Z,-1.10
2018-02-17T23:20:56.023Z,-1.10
2018-02-17T23:23:23.520Z,-1.10
2018-02-17T23:25:51.764Z,-1.20
2018-02-17T23:28:19.259Z,-1.10
2018-02-17T23:30:46.740Z,-1.20
2018-02-17T23:33:14.341Z,-1.20
2018-02-17T23:35:41.819Z,-1.30
2018-02-17T23:38:09.303Z,-1.30
2018-02-17T23:40:36.795Z,-1.30
2018-02-17T23:43:04.300Z,-1.30
2018-02-17T23:45:32.567Z,-1.40
2018-02-17T23:48:00.156Z,-1.40
2018-02-17T23:50:27.640Z,-1.40
2018-02-17T23:52:55.904Z,-1.40
2018-02-17T23:55:23.383Z,-1.40
2018-02-17T23:57:51.679Z,-1.40
